Bei Facebook empfehlenBei Twitter postenGoogle plusPinterest

Das Wetter im Erzgebirge am 14.03.2016

Wetter und Klima am 14.03.2016 Holzhau im Erzgebirge (630m ü.NN)
Letzte gemessene Temperatur und Uhrzeit der Messung23:45:00 Uhr-0.80 °C
Temperatur (Maximum / Höchstwert) und Uhrzeit der Messung15:45:00 Uhr5.80 °C
Temperatur (Minimum / Tiefstwert) und Uhrzeit der Messung04:45:00-4.40 °C
Errechneter Absolutwert der Temperaturschwankungen zwischen Tmin und Tmax des Tages10.20 K
Errechnete Tagesmitteltemperatur-0.37604 °C
Gesamt - Niederschlag des Tages (in flüssiger Form)0.00 Liter / m²
Luftdruck (Maximum / Höchstwert) und Zeitpunkt der Messung02:15:00 Uhr1027.70 hPa
Luftdruck (Minimum / Tiefstwert) und Zeitpunkt der Messung23:45:00 Uhr1021.40 hPa
Errechneter Absolutwert der Luftdruckschwankungen des Tages6.30 hPa
Höchste gemessene Windgeschwindigkeit und Uhrzeit der Messung08:15:00 Uhr10.44 km/h
Errechnete Windhäufigkeit in Relation zu den Messwerten des Tages13.54167 %
Niedrigste Windkühle (Windchill) und Zeitpunkt der Messung07:45:00 Uhr-5.80 °C
Taupunkt (Maximum / Höchstwert) und Uhrzeit der Messung13:00:00 Uhr2.50 °C
Taupunkt (Minimum / Tiefstwert) und Uhrzeit der Messung04:45:00-5.60 °C
Anzahl der automatisch eingelesenen Messwerte 96

Detaillierte Wetter- und Klima- Messwerte für den 14.03.2016 in Holzhau im Erzgebirge (630m ü.NN)
ZeitTemperaturLuftdruckRel. LuftfeuchteWindWindrichtungWindchillTaupunktNiederschlag l/m²
23:45:00-0.80 °C1021.40 hPa89.00 %-2.60 °C 
23:30:00-0.90 °C1021.50 hPa89.00 %-2.70 °C 
23:15:00-1.00 °C1021.50 hPa89.00 %-2.80 °C 
23:00:00-1.10 °C1021.70 hPa88.00 %-3.00 °C 
22:45:00-1.30 °C1022.00 hPa88.00 %-3.20 °C 
22:30:00-1.60 °C1022.10 hPa88.00 %-3.50 °C 
22:15:00-1.70 °C1022.20 hPa87.00 %-3.80 °C 
22:00:00-1.70 °C1022.10 hPa87.00 %-3.80 °C 
21:45:00-1.60 °C1022.20 hPa87.00 %-3.70 °C 
21:30:00-1.50 °C1022.50 hPa87.00 %-3.60 °C 
21:15:00-1.40 °C1022.60 hPa87.00 %-3.50 °C 
21:00:00-1.50 °C1022.70 hPa86.00 %-3.80 °C 
20:45:00-1.50 °C1022.80 hPa86.00 %-3.80 °C 
20:30:00-1.50 °C1022.90 hPa86.00 %-3.80 °C 
20:15:00-1.40 °C1022.80 hPa85.00 %-3.80 °C 
20:00:00-1.20 °C1023.10 hPa85.00 %-3.70 °C 
19:45:00-1.00 °C1023.30 hPa84.00 %-3.60 °C 
19:30:00-0.90 °C1023.40 hPa84.00 %-3.50 °C 
19:15:00-0.70 °C1023.60 hPa83.00 %-3.50 °C 
19:00:00-0.50 °C1023.60 hPa84.00 %-3.10 °C 
18:45:00-0.40 °C1023.80 hPa83.00 %-3.20 °C 
18:30:00-0.10 °C1023.50 hPa82.00 %-3.10 °C 
18:15:000.30 °C1023.80 hPa82.00 %-2.40 °C 
18:00:000.70 °C1023.80 hPa80.00 %-2.30 °C 
17:45:001.20 °C1023.90 hPa80.00 %-1.90 °C 
17:30:001.80 °C1023.90 hPa78.00 %-1.60 °C 
17:15:002.70 °C1024.00 hPa78.00 %-0.70 °C 
17:00:003.40 °C1024.20 hPa77.00 %-0.20 °C 
16:45:003.90 °C1024.20 hPa77.00 %0.20 °C 
16:30:004.30 °C1024.30 hPa77.00 %0.60 °C 
16:15:004.40 °C1024.20 hPa76.00 %0.60 °C 
16:00:005.10 °C1024.30 hPa77.00 %1.40 °C 
15:45:005.80 °C1024.60 hPa79.00 %2.40 °C 
15:30:005.10 °C1024.60 hPa79.00 %1.80 °C 
15:15:004.90 °C1024.90 hPa80.00 %1.70 °C 
15:00:004.90 °C1025.00 hPa81.00 %7.92 km/hNNW3.00 °C1.90 °C 
14:45:004.80 °C1025.10 hPa82.00 %2.00 °C 
14:30:004.00 °C1025.10 hPa82.00 %6.84 km/hSSW2.30 °C1.20 °C 
14:15:003.60 °C1025.50 hPa82.00 %0.80 °C 
14:00:003.80 °C1025.70 hPa82.00 %1.00 °C 
13:45:004.10 °C1025.70 hPa82.00 %1.30 °C 
13:30:004.90 °C1025.70 hPa83.00 %2.30 °C 
13:15:004.90 °C1025.80 hPa84.00 %2.40 °C 
13:00:004.80 °C1025.70 hPa85.00 %2.50 °C 
12:45:004.10 °C1025.90 hPa86.00 %5.40 km/hSO2.90 °C2.00 °C 
12:30:003.60 °C1026.10 hPa88.00 %1.80 °C 
12:15:002.50 °C1026.50 hPa88.00 %0.70 °C 
12:00:001.60 °C1026.70 hPa89.00 %0.00 °C 
11:45:001.30 °C1026.90 hPa89.00 %8.28 km/hSO-1.30 °C-0.30 °C 
11:30:000.90 °C1027.30 hPa90.00 %-0.50 °C 
11:15:000.60 °C1027.30 hPa90.00 %-0.80 °C 
11:00:000.60 °C1027.50 hPa91.00 %-0.70 °C 
10:45:000.30 °C1027.30 hPa91.00 %2.16 km/hSO0.30 °C-1.00 °C 
10:30:000.30 °C1027.30 hPa92.00 %2.52 km/hSO0.30 °C-0.80 °C 
10:15:00-0.70 °C1027.40 hPa92.00 %6.12 km/hSO-2.90 °C-2.00 °C 
10:00:00-1.00 °C1027.60 hPa92.00 %-2.30 °C 
09:45:00-1.30 °C1027.40 hPa93.00 %-2.40 °C 
09:30:00-1.60 °C1027.50 hPa93.00 %-2.70 °C 
09:15:00-1.70 °C1027.40 hPa93.00 %8.28 km/hOSO-4.80 °C-2.80 °C 
09:00:00-1.90 °C1027.40 hPa93.00 %-3.00 °C 
08:45:00-2.00 °C1027.40 hPa92.00 %5.76 km/hSSO-4.20 °C-3.30 °C 
08:30:00-2.00 °C1027.40 hPa93.00 %-3.10 °C 
08:15:00-1.90 °C1027.60 hPa93.00 %10.44 km/hSO-5.70 °C-3.00 °C 
08:00:00-1.90 °C1027.50 hPa93.00 %-3.00 °C 
07:45:00-2.10 °C1027.50 hPa93.00 %10.08 km/hSSO-5.80 °C-3.20 °C 
07:30:00-2.20 °C1027.50 hPa93.00 %-3.30 °C 
07:15:00-2.40 °C1027.60 hPa93.00 %-3.50 °C 
07:00:00-2.50 °C1027.30 hPa93.00 %-3.60 °C 
06:45:00-2.70 °C1027.60 hPa93.00 %-3.80 °C 
06:30:00-2.70 °C1027.60 hPa93.00 %-3.80 °C 
06:15:00-2.70 °C1027.30 hPa93.00 %-3.80 °C 
06:00:00-2.70 °C1027.30 hPa93.00 %-3.80 °C 
05:45:00-2.90 °C1027.20 hPa93.00 %2.52 km/hOSO-2.90 °C-4.00 °C 
05:30:00-3.20 °C1027.40 hPa93.00 %-4.30 °C 
05:15:00-3.50 °C1027.50 hPa93.00 %-4.60 °C 
05:00:00-3.90 °C1027.40 hPa93.00 %-5.00 °C 
04:45:00-4.40 °C1027.20 hPa92.00 %-5.60 °C 
04:30:00-4.40 °C1027.30 hPa92.00 %-5.60 °C 
04:15:00-4.20 °C1027.20 hPa93.00 %-5.30 °C 
04:00:00-3.90 °C1027.30 hPa93.00 %-5.00 °C 
03:45:00-3.80 °C1027.20 hPa93.00 %-4.90 °C 
03:30:00-3.80 °C1027.50 hPa92.00 %-5.00 °C 
03:15:00-3.30 °C1027.50 hPa92.00 %-4.50 °C 
03:00:00-3.10 °C1027.40 hPa93.00 %-4.20 °C 
02:45:00-3.00 °C1027.60 hPa93.00 %-4.10 °C 
02:30:00-2.90 °C1027.40 hPa93.00 %-4.00 °C 
02:15:00-2.70 °C1027.70 hPa93.00 %-3.80 °C 
02:00:00-2.80 °C1027.70 hPa93.00 %-3.90 °C 
01:45:00-2.70 °C1027.70 hPa92.00 %-3.90 °C 
01:30:00-2.60 °C1027.60 hPa92.00 %-3.90 °C 
01:15:00-2.60 °C1027.50 hPa92.00 %5.04 km/hSO-4.60 °C-3.90 °C 
01:00:00-2.40 °C1027.60 hPa92.00 %-3.70 °C 
00:45:00-2.10 °C1027.40 hPa93.00 %-3.20 °C 
00:30:00-2.00 °C1027.50 hPa93.00 %-3.10 °C 
00:15:00-1.90 °C1027.40 hPa93.00 %-3.00 °C 
00:00:00-1.90 °C1027.60 hPa93.00 %-3.00 °C 

Permanenter Link zu dieser Seite: Wetter im Erzgebirge am 14.03.2016
Performance-Info: Die Erstellung der Seite / Statistik(en) / Tabelle(n) erforderte 5 Datenbankserver-Abfrage(n) und dauerte 122 Millisekunden. (Dieser Messwert ist von der Gesamt-Auslastung des Servers abhängig.)
Erzgebirge - Wetter | Erzgebirge - Wetter (Mobilgeräte) | Komplette Klimadatenbank